createdAt,value
2023-04-25T00:04:03.828Z,99294.67
2023-04-25T00:08:12.477Z,99295.56
2023-04-25T00:12:20.160Z,99299.59
2023-04-25T00:16:28.102Z,99298.77
2023-04-25T00:20:36.691Z,99299.02
2023-04-25T00:24:44.941Z,99297.25
2023-04-25T00:28:53.859Z,99300.04
2023-04-25T00:33:01.174Z,99304.35
2023-04-25T00:37:08.825Z,99303.05
2023-04-25T00:41:16.818Z,99306.55
2023-04-25T00:45:24.802Z,99309.48
2023-04-25T00:49:32.590Z,99310.36
2023-04-25T00:53:41.212Z,99311.56
2023-04-25T00:57:49.489Z,99312.89
2023-04-25T01:01:57.419Z,99317.81
2023-04-25T01:06:05.498Z,99315.80
2023-04-25T01:10:13.758Z,99317.98
2023-04-25T01:14:21.542Z,99316.19
2023-04-25T01:18:29.640Z,99318.70
2023-04-25T01:22:37.454Z,99316.02
2023-04-25T01:26:50.638Z,99315.98
2023-04-25T01:30:58.805Z,99319.20
2023-04-25T01:35:10.417Z,99318.34
2023-04-25T01:39:18.247Z,99316.98
2023-04-25T01:43:27.623Z,99316.33
2023-04-25T01:47:36.252Z,99318.69
2023-04-25T01:51:45.215Z,99316.45
2023-04-25T01:55:55.111Z,99316.04
2023-04-25T02:00:04.805Z,99321.17
2023-04-25T02:04:12.868Z,99316.50
2023-04-25T02:08:22.386Z,99323.12
2023-04-25T02:12:31.218Z,99327.69
2023-04-25T02:16:40.150Z,99329.27
2023-04-25T02:20:47.986Z,99329.17
2023-04-25T02:24:57.416Z,99321.27
2023-04-25T02:29:07.314Z,99317.75
2023-04-25T02:33:14.832Z,99318.47
2023-04-25T02:37:22.582Z,99319.63
2023-04-25T02:41:30.117Z,99324.69
2023-04-25T02:45:38.884Z,99323.45
2023-04-25T02:49:47.064Z,99323.55
2023-04-25T02:53:55.951Z,99322.30
2023-04-25T02:58:03.715Z,99321.13
2023-04-25T03:02:13.882Z,99321.11
2023-04-25T03:06:21.695Z,99319.67
2023-04-25T03:10:29.467Z,99317.56
2023-04-25T03:14:37.631Z,99317.34
2023-04-25T03:18:45.748Z,99314.94
2023-04-25T03:22:53.112Z,99313.54
2023-04-25T03:27:01.559Z,99315.83
2023-04-25T03:31:11.721Z,99314.85
2023-04-25T03:35:19.788Z,99311.17
2023-04-25T03:39:27.630Z,99312.72
2023-04-25T03:43:35.567Z,99316.73
2023-04-25T03:47:43.928Z,99317.98
2023-04-25T03:51:51.758Z,99325.70
2023-04-25T03:56:04.692Z,99325.20
2023-04-25T04:00:17.672Z,99334.51
2023-04-25T04:04:25.821Z,99336.58
2023-04-25T04:08:34.484Z,99338.51
2023-04-25T04:12:42.756Z,99343.58
2023-04-25T04:16:50.403Z,99342.38
2023-04-25T04:20:59.368Z,99349.62
2023-04-25T04:25:08.523Z,99351.38
2023-04-25T04:29:22.226Z,99356.25
2023-04-25T04:33:30.789Z,99351.63
2023-04-25T04:37:39.128Z,99354.00
2023-04-25T04:41:47.496Z,99353.90
2023-04-25T04:45:57.421Z,99357.95
2023-04-25T04:50:08.300Z,99357.24
2023-04-25T04:54:17.784Z,99356.93
2023-04-25T04:58:30.261Z,99358.92
2023-04-25T05:02:38.259Z,99364.11
2023-04-25T05:06:48.661Z,99364.98
2023-04-25T05:10:58.234Z,99364.25
2023-04-25T05:15:06.729Z,99355.00
2023-04-25T05:19:15.477Z,99359.89
2023-04-25T05:23:23.231Z,99358.70
2023-04-25T05:27:31.046Z,99355.59
2023-04-25T05:31:40.206Z,99355.70
2023-04-25T05:35:49.415Z,99355.77
2023-04-25T05:39:57.591Z,99354.95
2023-04-25T05:44:06.058Z,99355.05
2023-04-25T05:48:14.431Z,99351.23
2023-04-25T05:52:23.832Z,99353.23
2023-04-25T05:56:31.806Z,99357.09
2023-04-25T06:00:39.900Z,99359.44
2023-04-25T06:04:48.048Z,99359.92
2023-04-25T06:08:57.153Z,99357.15
2023-04-25T06:13:04.988Z,99356.69
2023-04-25T06:17:13.104Z,99356.30
2023-04-25T06:21:21.176Z,99359.55
2023-04-25T06:25:30.285Z,99359.94
2023-04-25T06:29:39.631Z,99352.10
2023-04-25T06:33:49.777Z,99349.44
2023-04-25T06:37:57.482Z,99351.30
2023-04-25T06:42:05.104Z,99356.20
2023-04-25T06:46:13.565Z,99353.80
2023-04-25T06:50:21.276Z,99346.98
2023-04-25T06:54:30.927Z,99351.54
2023-04-25T06:58:38.487Z,99347.88
2023-04-25T07:02:46.905Z,99340.40
2023-04-25T07:06:56.104Z,99335.14
2023-04-25T07:11:04.076Z,99335.80
2023-04-25T07:15:13.264Z,99331.84
2023-04-25T07:19:20.869Z,99327.36
2023-04-25T07:23:28.737Z,99332.61
2023-04-25T07:27:36.547Z,99334.88
2023-04-25T07:31:44.680Z,99335.33
2023-04-25T07:35:54.296Z,99333.04
2023-04-25T07:40:02.003Z,99328.69
2023-04-25T07:44:09.818Z,99326.67
2023-04-25T07:48:21.166Z,99328.16
2023-04-25T07:52:29.239Z,99326.59
2023-04-25T07:56:48.995Z,99326.94
2023-04-25T08:00:59.962Z,99333.68
2023-04-25T08:05:13.241Z,99333.10
2023-04-25T08:09:21.085Z,99331.36
2023-04-25T08:13:30.597Z,99334.70
2023-04-25T08:17:38.209Z,99331.90
2023-04-25T08:21:46.762Z,99326.33
2023-04-25T08:25:55.186Z,99332.27
2023-04-25T08:30:04.162Z,99336.41
2023-04-25T08:34:12.527Z,99339.02
2023-04-25T08:38:22.365Z,99340.84
2023-04-25T08:42:31.277Z,99340.29
2023-04-25T08:46:40.204Z,99347.38
2023-04-25T08:50:53.845Z,99347.88
2023-04-25T08:55:02.490Z,99348.69
2023-04-25T08:59:12.549Z,99345.87
2023-04-25T09:03:20.461Z,99342.92
2023-04-25T09:07:28.400Z,99340.11
2023-04-25T09:11:38.262Z,99346.30
2023-04-25T09:15:56.958Z,99351.63
2023-04-25T09:20:16.469Z,99349.30
2023-04-25T09:24:34.481Z,99354.52
2023-04-25T09:28:44.253Z,99349.37
2023-04-25T09:32:51.718Z,99347.23
2023-04-25T09:37:00.124Z,99347.37
2023-04-25T09:41:08.010Z,99354.31
2023-04-25T09:45:17.134Z,99347.07
2023-04-25T09:49:25.817Z,99336.71
2023-04-25T09:53:34.514Z,99338.84
2023-04-25T09:57:42.260Z,99342.80
2023-04-25T10:01:51.402Z,99338.39
2023-04-25T10:06:01.452Z,99346.83
2023-04-25T10:10:11.312Z,99349.10
2023-04-25T10:14:20.461Z,99361.55
2023-04-25T10:18:29.513Z,99357.45
2023-04-25T10:22:40.009Z,99355.98
2023-04-25T10:26:48.352Z,99357.01
2023-04-25T10:31:06.902Z,99348.57
2023-04-25T10:35:19.527Z,99344.89
2023-04-25T10:39:29.704Z,99334.71
2023-04-25T10:43:42.513Z,99330.31
2023-04-25T10:47:50.503Z,99330.91
2023-04-25T10:52:16.162Z,99334.30
2023-04-25T10:56:24.876Z,99333.00
2023-04-25T11:00:42.869Z,99334.08
2023-04-25T11:04:57.621Z,99329.90
2023-04-25T11:09:06.224Z,99332.36
2023-04-25T11:13:15.738Z,99332.86
2023-04-25T11:17:23.565Z,99339.40
2023-04-25T11:21:33.210Z,99338.58
2023-04-25T11:25:45.220Z,99339.47
2023-04-25T11:29:53.447Z,99350.78
2023-04-25T11:34:02.738Z,99352.63
2023-04-25T11:38:11.222Z,99349.16
2023-04-25T11:42:18.840Z,99342.80
2023-04-25T11:46:30.306Z,99347.44
2023-04-25T11:50:38.143Z,99351.96
2023-04-25T11:54:46.140Z,99351.02
2023-04-25T11:59:03.855Z,99349.34
2023-04-25T12:03:17.901Z,99353.16
2023-04-25T12:07:33.074Z,99356.17
2023-04-25T12:11:47.158Z,99356.40
2023-04-25T12:15:56.455Z,99353.70
2023-04-25T12:20:04.334Z,99354.50
2023-04-25T12:24:20.176Z,99358.92
2023-04-25T12:28:29.480Z,99347.48
2023-04-25T12:32:37.888Z,99344.90
2023-04-25T12:36:46.978Z,99348.91
2023-04-25T12:40:55.593Z,99357.92
2023-04-25T12:45:03.480Z,99359.61
2023-04-25T12:53:26.419Z,99365.46
2023-04-25T12:57:34.603Z,99362.61
2023-04-25T13:01:42.370Z,99362.08
2023-04-25T13:05:51.622Z,99361.45
2023-04-25T13:10:00.472Z,99358.64
2023-04-25T13:14:10.597Z,99358.83
2023-04-25T13:18:19.465Z,99358.48
2023-04-25T13:22:28.819Z,99355.45
2023-04-25T13:26:38.383Z,99361.98
2023-04-25T13:30:48.245Z,99360.64
2023-04-25T13:34:57.157Z,99360.30
2023-04-25T13:39:06.317Z,99357.86
2023-04-25T13:43:14.084Z,99370.61
2023-04-25T13:47:25.577Z,99370.69
2023-04-25T13:51:33.303Z,99372.65
2023-04-25T13:55:41.626Z,99373.12
2023-04-25T13:59:49.466Z,99374.58
2023-04-25T14:03:56.993Z,99370.48
2023-04-25T14:08:06.706Z,99379.41
2023-04-25T14:12:14.537Z,99373.42
2023-04-25T14:16:23.883Z,99384.21
2023-04-25T14:20:32.368Z,99386.94
2023-04-25T14:24:41.182Z,99385.72
2023-04-25T14:28:48.914Z,99388.98
2023-04-25T14:32:56.848Z,99394.95
2023-04-25T14:37:04.446Z,99404.95
2023-04-25T14:41:12.131Z,99404.99
2023-04-25T14:45:21.540Z,99408.33
2023-04-25T14:49:30.310Z,99410.19
2023-04-25T14:53:38.324Z,99412.59
2023-04-25T14:57:47.123Z,99416.30
2023-04-25T15:01:59.784Z,99422.30
2023-04-25T15:06:08.678Z,99431.90
2023-04-25T15:10:17.702Z,99438.34
2023-04-25T15:14:25.297Z,99449.08
2023-04-25T15:18:33.224Z,99452.93
2023-04-25T15:22:42.409Z,99461.52
2023-04-25T15:26:50.701Z,99469.39
2023-04-25T15:30:58.591Z,99475.39
2023-04-25T15:35:09.520Z,99476.95
2023-04-25T15:39:18.262Z,99484.94
2023-04-25T15:43:26.426Z,99480.86
2023-04-25T15:47:34.285Z,99486.31
2023-04-25T15:51:42.543Z,99491.14
2023-04-25T15:55:50.464Z,99493.98
2023-04-25T15:59:58.193Z,99498.20
2023-04-25T16:04:07.072Z,99506.63
2023-04-25T16:08:15.046Z,99505.66
2023-04-25T16:12:22.942Z,99507.41
2023-04-25T16:16:30.990Z,99507.30
2023-04-25T16:20:38.817Z,99513.51
2023-04-25T16:24:46.826Z,99519.30
2023-04-25T16:28:54.530Z,99524.64
2023-04-25T16:33:02.604Z,99535.58
2023-04-25T16:37:10.716Z,99538.30
2023-04-25T16:41:18.789Z,99542.96
2023-04-25T16:45:27.056Z,99547.42
2023-04-25T16:49:34.809Z,99552.58
2023-04-25T16:53:42.712Z,99559.41
2023-04-25T16:57:50.157Z,99567.34
2023-04-25T17:01:58.584Z,99568.73
2023-04-25T17:06:07.996Z,99574.90
2023-04-25T17:10:15.344Z,99576.58
2023-04-25T17:14:23.584Z,99578.30
2023-04-25T17:18:33.556Z,99579.13
2023-04-25T17:22:41.290Z,99583.88
2023-04-25T17:26:49.192Z,99592.21
2023-04-25T17:30:57.778Z,99596.65
2023-04-25T17:35:05.693Z,99604.98
2023-04-25T17:39:17.761Z,99605.66
2023-04-25T17:43:28.106Z,99616.33
2023-04-25T17:47:35.718Z,99619.89
2023-04-25T17:51:43.991Z,99625.58
2023-04-25T17:55:52.237Z,99631.49
2023-04-25T18:00:02.914Z,99639.32
2023-04-25T18:04:14.408Z,99645.12
2023-04-25T18:08:23.212Z,99650.33
2023-04-25T18:12:30.652Z,99655.77
2023-04-25T18:16:38.665Z,99656.52
2023-04-25T18:20:47.032Z,99660.90
2023-04-25T18:24:55.601Z,99664.54
2023-04-25T18:29:03.828Z,99670.92
2023-04-25T18:33:11.647Z,99677.82
2023-04-25T18:37:20.204Z,99682.37
2023-04-25T18:41:51.868Z,99689.43
2023-04-25T18:45:56.560Z,99694.54
2023-04-25T18:50:06.909Z,99703.85
2023-04-25T18:54:15.049Z,99705.34
2023-04-25T18:58:23.683Z,99713.70
2023-04-25T19:02:31.573Z,99717.98
2023-04-25T19:06:42.086Z,99723.61
2023-04-25T19:10:50.783Z,99724.38
2023-04-25T19:14:59.342Z,99726.27
2023-04-25T19:19:09.001Z,99722.38
2023-04-25T19:23:16.764Z,99721.77
2023-04-25T19:27:24.587Z,99722.23
2023-04-25T19:31:32.044Z,99726.71
2023-04-25T19:35:39.769Z,99725.55
2023-04-25T19:39:48.142Z,99728.37
2023-04-25T19:44:00.195Z,99735.45
2023-04-25T19:48:10.390Z,99740.46
2023-04-25T19:52:18.482Z,99748.86
2023-04-25T19:56:27.305Z,99755.59
2023-04-25T20:00:35.527Z,99761.02
2023-04-25T20:04:43.783Z,99764.77
2023-04-25T20:08:54.405Z,99768.02
2023-04-25T20:13:03.141Z,99765.35
2023-04-25T20:17:12.646Z,99762.20
2023-04-25T20:21:21.885Z,99766.58
2023-04-25T20:25:30.334Z,99772.56
2023-04-25T20:29:38.462Z,99777.08
2023-04-25T20:33:45.865Z,99779.23
2023-04-25T20:37:53.873Z,99780.38
2023-04-25T20:42:01.836Z,99781.98
2023-04-25T20:46:10.657Z,99779.21
2023-04-25T20:50:19.403Z,99779.21
2023-04-25T20:54:27.363Z,99783.42
2023-04-25T20:58:35.978Z,99786.61
2023-04-25T21:02:44.264Z,99785.86
2023-04-25T21:06:51.804Z,99788.88
2023-04-25T21:10:59.666Z,99793.94
2023-04-25T21:15:08.888Z,99793.14
2023-04-25T21:19:17.815Z,99794.73
2023-04-25T21:23:30.047Z,99800.96
2023-04-25T21:27:38.385Z,99805.25
2023-04-25T21:31:48.261Z,99807.02
2023-04-25T21:35:57.255Z,99807.91
2023-04-25T21:40:06.157Z,99811.05
2023-04-25T21:44:14.632Z,99816.90
2023-04-25T21:48:25.587Z,99820.07
2023-04-25T21:52:33.718Z,99823.98
2023-04-25T21:56:43.417Z,99826.30
2023-04-25T22:00:52.108Z,99828.58
2023-04-25T22:05:00.421Z,99828.41
2023-04-25T22:09:12.420Z,99831.33
2023-04-25T22:13:23.108Z,99837.20
2023-04-25T22:17:31.634Z,99838.77
2023-04-25T22:21:39.807Z,99842.10
2023-04-25T22:25:47.732Z,99844.85
2023-04-25T22:29:55.632Z,99848.44
2023-04-25T22:34:04.511Z,99850.73
2023-04-25T22:38:13.349Z,99859.50
2023-04-25T22:42:20.671Z,99868.15
2023-04-25T22:46:28.897Z,99865.30
2023-04-25T22:50:39.753Z,99866.36
2023-04-25T22:54:47.620Z,99867.33
2023-04-25T22:58:55.605Z,99867.47
2023-04-25T23:13:04.721Z,99870.69
2023-04-25T23:17:12.791Z,99874.81
2023-04-25T23:21:23.363Z,99877.90
2023-04-25T23:25:32.597Z,99883.31
2023-04-25T23:29:41.292Z,99883.80
2023-04-25T23:33:49.214Z,99881.88
2023-04-25T23:37:57.600Z,99881.05
2023-04-25T23:42:05.126Z,99883.66
2023-04-25T23:46:14.124Z,99883.25
2023-04-25T23:50:22.280Z,99883.04
2023-04-25T23:54:30.765Z,99883.94
2023-04-25T23:58:39.685Z,99878.58
